sensor_id;sensor_type;location;lat;lon;timestamp;temperature;humidity
61201;DHT22;47065;52.898;6.992;2023-07-13T00:00:19;15.30;99.90
61201;DHT22;47065;52.898;6.992;2023-07-13T00:02:46;15.30;99.90
61201;DHT22;47065;52.898;6.992;2023-07-13T00:05:11;15.30;99.90
61201;DHT22;47065;52.898;6.992;2023-07-13T00:07:37;15.30;99.90
61201;DHT22;47065;52.898;6.992;2023-07-13T00:10:03;15.20;99.90
61201;DHT22;47065;52.898;6.992;2023-07-13T00:12:31;15.20;99.90
61201;DHT22;47065;52.898;6.992;2023-07-13T00:14:59;15.20;99.90
61201;DHT22;47065;52.898;6.992;2023-07-13T00:17:26;15.10;99.90
61201;DHT22;47065;52.898;6.992;2023-07-13T00:19:53;15.10;99.90
61201;DHT22;47065;52.898;6.992;2023-07-13T00:22:19;15.10;99.90
61201;DHT22;47065;52.898;6.992;2023-07-13T00:24:45;15.10;99.90
61201;DHT22;47065;52.898;6.992;2023-07-13T00:27:11;15.10;99.90
61201;DHT22;47065;52.898;6.992;2023-07-13T00:29:37;15.10;99.90
61201;DHT22;47065;52.898;6.992;2023-07-13T00:32:04;15.10;99.90
61201;DHT22;47065;52.898;6.992;2023-07-13T00:34:31;15.10;99.90
61201;DHT22;47065;52.898;6.992;2023-07-13T00:36:56;15.10;99.90
61201;DHT22;47065;52.898;6.992;2023-07-13T00:39:22;15.10;99.90
61201;DHT22;47065;52.898;6.992;2023-07-13T00:41:48;15.10;99.90
61201;DHT22;47065;52.898;6.992;2023-07-13T00:44:15;15.10;99.90
61201;DHT22;47065;52.898;6.992;2023-07-13T00:46:41;15.10;99.90
61201;DHT22;47065;52.898;6.992;2023-07-13T00:49:10;15.00;99.90
61201;DHT22;47065;52.898;6.992;2023-07-13T00:51:43;15.10;99.90
61201;DHT22;47065;52.898;6.992;2023-07-13T00:54:13;15.00;99.90
61201;DHT22;47065;52.898;6.992;2023-07-13T00:56:40;15.10;99.90
61201;DHT22;47065;52.898;6.992;2023-07-13T00:59:08;15.10;99.90
61201;DHT22;47065;52.898;6.992;2023-07-13T01:01:34;15.10;99.90
61201;DHT22;47065;52.898;6.992;2023-07-13T01:04:02;15.10;99.90
61201;DHT22;47065;52.898;6.992;2023-07-13T01:06:28;15.10;99.90
61201;DHT22;47065;52.898;6.992;2023-07-13T01:08:54;15.10;99.90
61201;DHT22;47065;52.898;6.992;2023-07-13T01:11:22;15.10;99.90
61201;DHT22;47065;52.898;6.992;2023-07-13T01:13:48;15.10;99.90
61201;DHT22;47065;52.898;6.992;2023-07-13T01:16:34;15.20;99.90
61201;DHT22;47065;52.898;6.992;2023-07-13T01:19:00;15.10;99.90
61201;DHT22;47065;52.898;6.992;2023-07-13T01:21:29;15.20;99.90
61201;DHT22;47065;52.898;6.992;2023-07-13T01:23:55;15.20;99.90
61201;DHT22;47065;52.898;6.992;2023-07-13T01:26:21;15.20;99.90
61201;DHT22;47065;52.898;6.992;2023-07-13T01:28:47;15.20;99.90
61201;DHT22;47065;52.898;6.992;2023-07-13T01:31:13;15.20;99.90
61201;DHT22;47065;52.898;6.992;2023-07-13T01:33:40;15.30;99.90
61201;DHT22;47065;52.898;6.992;2023-07-13T01:36:07;15.30;99.90
61201;DHT22;47065;52.898;6.992;2023-07-13T01:38:34;15.30;99.90
61201;DHT22;47065;52.898;6.992;2023-07-13T01:41:01;15.40;99.90
61201;DHT22;47065;52.898;6.992;2023-07-13T01:43:26;15.30;99.90
61201;DHT22;47065;52.898;6.992;2023-07-13T01:45:52;15.30;99.90
61201;DHT22;47065;52.898;6.992;2023-07-13T01:48:18;15.40;99.90
61201;DHT22;47065;52.898;6.992;2023-07-13T01:50:45;15.40;99.90
61201;DHT22;47065;52.898;6.992;2023-07-13T01:53:11;15.40;99.90
61201;DHT22;47065;52.898;6.992;2023-07-13T01:55:37;15.40;99.90
61201;DHT22;47065;52.898;6.992;2023-07-13T01:58:03;15.40;99.90
61201;DHT22;47065;52.898;6.992;2023-07-13T02:00:29;15.40;99.90
61201;DHT22;47065;52.898;6.992;2023-07-13T02:02:56;15.40;99.90
61201;DHT22;47065;52.898;6.992;2023-07-13T02:05:21;15.50;99.90
61201;DHT22;47065;52.898;6.992;2023-07-13T02:07:47;15.50;99.90
61201;DHT22;47065;52.898;6.992;2023-07-13T02:10:13;15.50;99.90
61201;DHT22;47065;52.898;6.992;2023-07-13T02:12:39;15.50;99.90
61201;DHT22;47065;52.898;6.992;2023-07-13T02:15:06;15.60;99.90
61201;DHT22;47065;52.898;6.992;2023-07-13T02:17:31;15.50;99.90
61201;DHT22;47065;52.898;6.992;2023-07-13T02:19:58;15.50;99.90
61201;DHT22;47065;52.898;6.992;2023-07-13T02:22:23;15.60;99.90
61201;DHT22;47065;52.898;6.992;2023-07-13T02:24:49;15.60;99.90
61201;DHT22;47065;52.898;6.992;2023-07-13T02:27:15;15.60;99.90
61201;DHT22;47065;52.898;6.992;2023-07-13T02:29:41;15.60;99.90
61201;DHT22;47065;52.898;6.992;2023-07-13T02:32:07;15.60;99.90
61201;DHT22;47065;52.898;6.992;2023-07-13T02:34:34;15.60;99.90
61201;DHT22;47065;52.898;6.992;2023-07-13T02:36:59;15.60;99.90
61201;DHT22;47065;52.898;6.992;2023-07-13T02:39:25;15.60;99.90
61201;DHT22;47065;52.898;6.992;2023-07-13T02:41:51;15.60;99.90
61201;DHT22;47065;52.898;6.992;2023-07-13T02:44:17;15.60;99.90
61201;DHT22;47065;52.898;6.992;2023-07-13T02:46:42;15.60;99.90
61201;DHT22;47065;52.898;6.992;2023-07-13T02:49:08;15.60;99.90
61201;DHT22;47065;52.898;6.992;2023-07-13T02:51:34;15.60;99.90
61201;DHT22;47065;52.898;6.992;2023-07-13T02:54:04;15.60;99.90
61201;DHT22;47065;52.898;6.992;2023-07-13T02:56:31;15.50;99.90
61201;DHT22;47065;52.898;6.992;2023-07-13T02:58:57;15.50;99.90
61201;DHT22;47065;52.898;6.992;2023-07-13T03:01:24;15.50;99.90
61201;DHT22;47065;52.898;6.992;2023-07-13T03:03:51;15.50;99.90
61201;DHT22;47065;52.898;6.992;2023-07-13T03:06:18;15.50;99.90
61201;DHT22;47065;52.898;6.992;2023-07-13T03:08:44;15.40;99.90
61201;DHT22;47065;52.898;6.992;2023-07-13T03:11:13;15.50;99.90
61201;DHT22;47065;52.898;6.992;2023-07-13T03:13:40;15.40;99.90
61201;DHT22;47065;52.898;6.992;2023-07-13T03:16:07;15.40;99.90
61201;DHT22;47065;52.898;6.992;2023-07-13T03:18:34;15.40;99.90
61201;DHT22;47065;52.898;6.992;2023-07-13T03:21:00;15.40;99.90
61201;DHT22;47065;52.898;6.992;2023-07-13T03:23:26;15.40;99.90
61201;DHT22;47065;52.898;6.992;2023-07-13T03:26:11;15.40;99.90
61201;DHT22;47065;52.898;6.992;2023-07-13T03:28:38;15.40;99.90
61201;DHT22;47065;52.898;6.992;2023-07-13T03:31:09;15.40;99.90
61201;DHT22;47065;52.898;6.992;2023-07-13T03:33:35;15.40;99.90
61201;DHT22;47065;52.898;6.992;2023-07-13T03:36:01;15.40;99.90
61201;DHT22;47065;52.898;6.992;2023-07-13T03:38:27;15.40;99.90
61201;DHT22;47065;52.898;6.992;2023-07-13T03:40:53;15.40;99.90
61201;DHT22;47065;52.898;6.992;2023-07-13T03:43:19;15.40;99.90
61201;DHT22;47065;52.898;6.992;2023-07-13T03:45:46;15.40;99.90
61201;DHT22;47065;52.898;6.992;2023-07-13T03:48:12;15.40;99.90
61201;DHT22;47065;52.898;6.992;2023-07-13T03:50:37;15.40;99.90
61201;DHT22;47065;52.898;6.992;2023-07-13T03:53:04;15.40;99.90
61201;DHT22;47065;52.898;6.992;2023-07-13T03:55:29;15.40;99.90
61201;DHT22;47065;52.898;6.992;2023-07-13T03:58:37;15.50;99.90
61201;DHT22;47065;52.898;6.992;2023-07-13T04:01:05;15.50;99.90
61201;DHT22;47065;52.898;6.992;2023-07-13T04:03:32;15.50;99.90
61201;DHT22;47065;52.898;6.992;2023-07-13T04:06:03;15.50;99.90
61201;DHT22;47065;52.898;6.992;2023-07-13T04:08:35;15.50;99.90
61201;DHT22;47065;52.898;6.992;2023-07-13T04:11:02;15.50;99.90
61201;DHT22;47065;52.898;6.992;2023-07-13T04:13:28;15.50;99.90
61201;DHT22;47065;52.898;6.992;2023-07-13T04:15:55;15.50;99.90
61201;DHT22;47065;52.898;6.992;2023-07-13T04:18:21;15.50;99.90
61201;DHT22;47065;52.898;6.992;2023-07-13T04:20:48;15.50;99.90
61201;DHT22;47065;52.898;6.992;2023-07-13T04:23:15;15.50;99.90
61201;DHT22;47065;52.898;6.992;2023-07-13T04:25:45;15.50;99.90
61201;DHT22;47065;52.898;6.992;2023-07-13T04:28:11;15.60;99.90
61201;DHT22;47065;52.898;6.992;2023-07-13T04:30:36;15.60;99.90
61201;DHT22;47065;52.898;6.992;2023-07-13T04:33:02;15.60;99.90
61201;DHT22;47065;52.898;6.992;2023-07-13T04:35:28;15.60;99.90
61201;DHT22;47065;52.898;6.992;2023-07-13T04:37:53;15.60;99.90
61201;DHT22;47065;52.898;6.992;2023-07-13T04:40:20;15.70;99.90
61201;DHT22;47065;52.898;6.992;2023-07-13T04:42:46;15.70;99.90
61201;DHT22;47065;52.898;6.992;2023-07-13T04:45:13;15.70;99.90
61201;DHT22;47065;52.898;6.992;2023-07-13T04:47:40;15.70;99.90
61201;DHT22;47065;52.898;6.992;2023-07-13T04:50:07;15.70;99.90
61201;DHT22;47065;52.898;6.992;2023-07-13T04:52:33;15.70;99.90
61201;DHT22;47065;52.898;6.992;2023-07-13T04:54:59;15.70;99.90
61201;DHT22;47065;52.898;6.992;2023-07-13T04:57:26;15.70;99.90
61201;DHT22;47065;52.898;6.992;2023-07-13T04:59:52;15.70;99.90
61201;DHT22;47065;52.898;6.992;2023-07-13T05:02:18;15.70;99.90
61201;DHT22;47065;52.898;6.992;2023-07-13T05:04:46;15.70;99.90
61201;DHT22;47065;52.898;6.992;2023-07-13T05:07:13;15.70;99.90
61201;DHT22;47065;52.898;6.992;2023-07-13T05:09:38;15.70;99.90
61201;DHT22;47065;52.898;6.992;2023-07-13T05:12:06;15.70;99.90
61201;DHT22;47065;52.898;6.992;2023-07-13T05:14:32;15.70;99.90
61201;DHT22;47065;52.898;6.992;2023-07-13T05:16:58;15.70;99.90
61201;DHT22;47065;52.898;6.992;2023-07-13T05:19:24;15.70;99.90
61201;DHT22;47065;52.898;6.992;2023-07-13T05:21:50;15.60;99.90
61201;DHT22;47065;52.898;6.992;2023-07-13T05:24:15;15.60;99.90
61201;DHT22;47065;52.898;6.992;2023-07-13T05:26:41;15.60;99.90
61201;DHT22;47065;52.898;6.992;2023-07-13T05:29:07;15.60;99.90
61201;DHT22;47065;52.898;6.992;2023-07-13T05:31:32;15.60;99.90
61201;DHT22;47065;52.898;6.992;2023-07-13T05:33:58;15.60;99.90
61201;DHT22;47065;52.898;6.992;2023-07-13T05:36:24;15.70;99.90
61201;DHT22;47065;52.898;6.992;2023-07-13T05:38:49;15.70;99.90
61201;DHT22;47065;52.898;6.992;2023-07-13T05:41:15;15.70;99.90
61201;DHT22;47065;52.898;6.992;2023-07-13T05:43:41;15.70;99.90
61201;DHT22;47065;52.898;6.992;2023-07-13T05:46:06;15.70;99.90
61201;DHT22;47065;52.898;6.992;2023-07-13T05:48:32;15.70;99.90
61201;DHT22;47065;52.898;6.992;2023-07-13T05:50:58;15.80;99.90
61201;DHT22;47065;52.898;6.992;2023-07-13T05:53:24;15.80;99.90
61201;DHT22;47065;52.898;6.992;2023-07-13T05:55:49;15.90;99.90
61201;DHT22;47065;52.898;6.992;2023-07-13T05:58:19;15.90;99.90
61201;DHT22;47065;52.898;6.992;2023-07-13T06:00:46;16.00;99.90
61201;DHT22;47065;52.898;6.992;2023-07-13T06:03:12;16.10;99.90
61201;DHT22;47065;52.898;6.992;2023-07-13T06:05:38;16.10;99.90
61201;DHT22;47065;52.898;6.992;2023-07-13T06:08:05;16.20;99.90
61201;DHT22;47065;52.898;6.992;2023-07-13T06:10:35;16.20;99.90
61201;DHT22;47065;52.898;6.992;2023-07-13T06:13:01;16.20;99.90
61201;DHT22;47065;52.898;6.992;2023-07-13T06:15:28;16.30;99.90
61201;DHT22;47065;52.898;6.992;2023-07-13T06:17:54;16.40;99.90
61201;DHT22;47065;52.898;6.992;2023-07-13T06:20:20;16.40;99.90
61201;DHT22;47065;52.898;6.992;2023-07-13T06:22:45;16.40;99.90
61201;DHT22;47065;52.898;6.992;2023-07-13T06:25:11;16.50;99.90
61201;DHT22;47065;52.898;6.992;2023-07-13T06:27:37;16.50;99.90
61201;DHT22;47065;52.898;6.992;2023-07-13T06:30:03;16.60;99.90
61201;DHT22;47065;52.898;6.992;2023-07-13T06:32:29;16.60;99.90
61201;DHT22;47065;52.898;6.992;2023-07-13T06:34:55;16.70;99.90
61201;DHT22;47065;52.898;6.992;2023-07-13T06:37:20;16.80;99.90
61201;DHT22;47065;52.898;6.992;2023-07-13T06:39:46;16.80;99.90
61201;DHT22;47065;52.898;6.992;2023-07-13T06:42:12;16.90;99.90
61201;DHT22;47065;52.898;6.992;2023-07-13T06:44:37;17.00;99.90
61201;DHT22;47065;52.898;6.992;2023-07-13T06:47:03;17.00;99.90
61201;DHT22;47065;52.898;6.992;2023-07-13T06:49:29;17.10;99.90
61201;DHT22;47065;52.898;6.992;2023-07-13T06:51:55;17.10;99.90
61201;DHT22;47065;52.898;6.992;2023-07-13T06:54:20;17.20;99.90
61201;DHT22;47065;52.898;6.992;2023-07-13T06:56:46;17.30;99.90
61201;DHT22;47065;52.898;6.992;2023-07-13T06:59:12;17.30;99.90
61201;DHT22;47065;52.898;6.992;2023-07-13T07:01:37;17.40;99.90
61201;DHT22;47065;52.898;6.992;2023-07-13T07:04:04;17.40;99.90
61201;DHT22;47065;52.898;6.992;2023-07-13T07:06:30;17.50;99.90
61201;DHT22;47065;52.898;6.992;2023-07-13T07:08:55;17.60;99.90
61201;DHT22;47065;52.898;6.992;2023-07-13T07:11:25;17.70;99.90
61201;DHT22;47065;52.898;6.992;2023-07-13T07:13:52;17.80;99.90
61201;DHT22;47065;52.898;6.992;2023-07-13T07:16:19;17.90;99.90
61201;DHT22;47065;52.898;6.992;2023-07-13T07:18:46;18.00;99.90
61201;DHT22;47065;52.898;6.992;2023-07-13T07:21:12;18.20;99.90
61201;DHT22;47065;52.898;6.992;2023-07-13T07:23:38;18.30;99.90
61201;DHT22;47065;52.898;6.992;2023-07-13T07:26:04;18.40;99.90
61201;DHT22;47065;52.898;6.992;2023-07-13T07:28:30;18.50;99.90
61201;DHT22;47065;52.898;6.992;2023-07-13T07:30:57;18.60;99.90
61201;DHT22;47065;52.898;6.992;2023-07-13T07:33:24;18.70;99.90
61201;DHT22;47065;52.898;6.992;2023-07-13T07:35:50;18.80;99.90
61201;DHT22;47065;52.898;6.992;2023-07-13T07:38:16;18.90;99.90
61201;DHT22;47065;52.898;6.992;2023-07-13T07:40:42;18.90;99.90
61201;DHT22;47065;52.898;6.992;2023-07-13T07:43:09;18.90;99.90
61201;DHT22;47065;52.898;6.992;2023-07-13T07:45:35;18.90;99.90
61201;DHT22;47065;52.898;6.992;2023-07-13T07:48:00;19.00;99.90
61201;DHT22;47065;52.898;6.992;2023-07-13T07:50:27;19.00;99.90
61201;DHT22;47065;52.898;6.992;2023-07-13T07:52:54;19.00;99.90
61201;DHT22;47065;52.898;6.992;2023-07-13T07:55:22;19.10;99.90
61201;DHT22;47065;52.898;6.992;2023-07-13T07:57:48;19.10;99.90
61201;DHT22;47065;52.898;6.992;2023-07-13T08:00:14;19.20;99.90
61201;DHT22;47065;52.898;6.992;2023-07-13T08:02:40;19.20;99.90
61201;DHT22;47065;52.898;6.992;2023-07-13T08:05:07;19.30;99.90
61201;DHT22;47065;52.898;6.992;2023-07-13T08:07:34;19.40;99.90
61201;DHT22;47065;52.898;6.992;2023-07-13T08:09:59;19.30;99.90
61201;DHT22;47065;52.898;6.992;2023-07-13T08:12:25;19.40;99.90
61201;DHT22;47065;52.898;6.992;2023-07-13T08:14:52;19.50;99.90
61201;DHT22;47065;52.898;6.992;2023-07-13T08:17:23;19.50;99.90
61201;DHT22;47065;52.898;6.992;2023-07-13T08:19:50;19.50;99.90
61201;DHT22;47065;52.898;6.992;2023-07-13T08:22:16;19.60;99.90
61201;DHT22;47065;52.898;6.992;2023-07-13T08:24:42;19.70;99.90
61201;DHT22;47065;52.898;6.992;2023-07-13T08:27:11;19.70;99.90
61201;DHT22;47065;52.898;6.992;2023-07-13T08:29:39;19.70;99.90
61201;DHT22;47065;52.898;6.992;2023-07-13T08:32:07;19.70;99.90
61201;DHT22;47065;52.898;6.992;2023-07-13T08:34:36;19.90;99.90
61201;DHT22;47065;52.898;6.992;2023-07-13T08:37:02;20.10;99.90
61201;DHT22;47065;52.898;6.992;2023-07-13T08:39:30;20.20;99.90
61201;DHT22;47065;52.898;6.992;2023-07-13T08:42:03;20.30;99.90
61201;DHT22;47065;52.898;6.992;2023-07-13T08:47:09;20.70;99.90
61201;DHT22;47065;52.898;6.992;2023-07-13T08:49:38;20.80;99.90
61201;DHT22;47065;52.898;6.992;2023-07-13T08:54:57;20.90;99.90
61201;DHT22;47065;52.898;6.992;2023-07-13T08:57:31;20.80;99.90
61201;DHT22;47065;52.898;6.992;2023-07-13T08:59:57;20.80;99.90
61201;DHT22;47065;52.898;6.992;2023-07-13T09:02:42;21.00;99.90
61201;DHT22;47065;52.898;6.992;2023-07-13T09:05:21;21.40;99.90
61201;DHT22;47065;52.898;6.992;2023-07-13T09:10:47;22.20;99.90
61201;DHT22;47065;52.898;6.992;2023-07-13T09:13:47;22.20;99.90
61201;DHT22;47065;52.898;6.992;2023-07-13T09:16:15;22.00;99.90
61201;DHT22;47065;52.898;6.992;2023-07-13T09:18:45;21.80;99.90
61201;DHT22;47065;52.898;6.992;2023-07-13T09:21:16;21.50;99.90
61201;DHT22;47065;52.898;6.992;2023-07-13T09:23:43;21.30;99.90
61201;DHT22;47065;52.898;6.992;2023-07-13T09:26:20;20.90;99.90
61201;DHT22;47065;52.898;6.992;2023-07-13T09:28:55;20.50;99.90
61201;DHT22;47065;52.898;6.992;2023-07-13T09:31:36;20.20;99.90
61201;DHT22;47065;52.898;6.992;2023-07-13T09:34:04;19.90;99.90
61201;DHT22;47065;52.898;6.992;2023-07-13T09:36:33;19.60;99.90
61201;DHT22;47065;52.898;6.992;2023-07-13T09:39:36;19.40;99.90
61201;DHT22;47065;52.898;6.992;2023-07-13T09:42:21;19.00;99.90
61201;DHT22;47065;52.898;6.992;2023-07-13T09:49:59;18.00;99.90
61201;DHT22;47065;52.898;6.992;2023-07-13T09:52:26;17.80;99.90
61201;DHT22;47065;52.898;6.992;2023-07-13T09:54:54;17.50;99.90
61201;DHT22;47065;52.898;6.992;2023-07-13T09:57:25;17.30;99.90
61201;DHT22;47065;52.898;6.992;2023-07-13T09:59:53;17.00;99.90
61201;DHT22;47065;52.898;6.992;2023-07-13T10:02:33;16.70;99.90
61201;DHT22;47065;52.898;6.992;2023-07-13T10:05:14;16.50;99.90
61201;DHT22;47065;52.898;6.992;2023-07-13T10:07:44;16.30;99.90
61201;DHT22;47065;52.898;6.992;2023-07-13T10:10:16;16.10;99.90
61201;DHT22;47065;52.898;6.992;2023-07-13T10:12:41;16.00;99.90
61201;DHT22;47065;52.898;6.992;2023-07-13T10:15:16;15.90;99.90
61201;DHT22;47065;52.898;6.992;2023-07-13T10:17:43;15.80;99.90
61201;DHT22;47065;52.898;6.992;2023-07-13T10:20:10;15.80;99.90
61201;DHT22;47065;52.898;6.992;2023-07-13T10:25:25;15.70;99.90
61201;DHT22;47065;52.898;6.992;2023-07-13T10:27:56;15.80;99.90
61201;DHT22;47065;52.898;6.992;2023-07-13T10:30:30;16.00;99.90
61201;DHT22;47065;52.898;6.992;2023-07-13T10:33:03;16.20;99.90
61201;DHT22;47065;52.898;6.992;2023-07-13T10:35:34;16.60;99.90
61201;DHT22;47065;52.898;6.992;2023-07-13T10:38:39;17.10;99.90
61201;DHT22;47065;52.898;6.992;2023-07-13T10:41:10;17.60;99.90
61201;DHT22;47065;52.898;6.992;2023-07-13T10:43:43;18.10;99.90
61201;DHT22;47065;52.898;6.992;2023-07-13T10:46:13;18.50;99.90
61201;DHT22;47065;52.898;6.992;2023-07-13T10:48:41;18.60;99.90
61201;DHT22;47065;52.898;6.992;2023-07-13T10:51:10;18.80;99.90
61201;DHT22;47065;52.898;6.992;2023-07-13T10:53:39;19.00;99.90
61201;DHT22;47065;52.898;6.992;2023-07-13T10:58:41;19.50;99.90
61201;DHT22;47065;52.898;6.992;2023-07-13T11:01:18;19.60;99.90
61201;DHT22;47065;52.898;6.992;2023-07-13T11:06:16;19.90;99.90
61201;DHT22;47065;52.898;6.992;2023-07-13T11:14:02;20.40;99.90
61201;DHT22;47065;52.898;6.992;2023-07-13T11:16:46;20.50;99.90
61201;DHT22;47065;52.898;6.992;2023-07-13T11:24:57;20.90;99.90
61201;DHT22;47065;52.898;6.992;2023-07-13T11:27:45;21.00;99.90
61201;DHT22;47065;52.898;6.992;2023-07-13T11:30:24;21.30;99.90
61201;DHT22;47065;52.898;6.992;2023-07-13T11:32:52;21.40;99.90
61201;DHT22;47065;52.898;6.992;2023-07-13T11:35:28;21.40;99.90
61201;DHT22;47065;52.898;6.992;2023-07-13T11:37:54;21.40;99.90
61201;DHT22;47065;52.898;6.992;2023-07-13T11:40:23;21.40;99.90
61201;DHT22;47065;52.898;6.992;2023-07-13T11:42:54;21.60;99.90
61201;DHT22;47065;52.898;6.992;2023-07-13T11:45:23;22.20;99.90
61201;DHT22;47065;52.898;6.992;2023-07-13T11:47:49;22.60;99.90
61201;DHT22;47065;52.898;6.992;2023-07-13T11:50:23;22.80;99.90
61201;DHT22;47065;52.898;6.992;2023-07-13T11:52:51;22.40;99.90
61201;DHT22;47065;52.898;6.992;2023-07-13T11:55:21;21.80;99.90
61201;DHT22;47065;52.898;6.992;2023-07-13T11:58:07;21.10;99.90
61201;DHT22;47065;52.898;6.992;2023-07-13T12:00:35;20.50;99.90
61201;DHT22;47065;52.898;6.992;2023-07-13T12:03:02;20.10;99.90
61201;DHT22;47065;52.898;6.992;2023-07-13T12:05:30;19.80;99.90
61201;DHT22;47065;52.898;6.992;2023-07-13T12:07:58;19.60;99.90
61201;DHT22;47065;52.898;6.992;2023-07-13T12:10:28;19.40;99.90
61201;DHT22;47065;52.898;6.992;2023-07-13T12:13:02;19.40;99.90
61201;DHT22;47065;52.898;6.992;2023-07-13T12:15:40;19.30;99.90
61201;DHT22;47065;52.898;6.992;2023-07-13T12:18:19;19.60;99.90
61201;DHT22;47065;52.898;6.992;2023-07-13T12:20:46;20.00;99.90
61201;DHT22;47065;52.898;6.992;2023-07-13T12:23:25;20.20;99.90
61201;DHT22;47065;52.898;6.992;2023-07-13T12:25:51;20.40;99.90
61201;DHT22;47065;52.898;6.992;2023-07-13T12:28:46;20.50;99.90
61201;DHT22;47065;52.898;6.992;2023-07-13T12:31:36;20.70;99.90
61201;DHT22;47065;52.898;6.992;2023-07-13T12:34:11;20.90;99.90
61201;DHT22;47065;52.898;6.992;2023-07-13T12:36:41;20.90;99.90
61201;DHT22;47065;52.898;6.992;2023-07-13T12:41:45;21.00;99.90
61201;DHT22;47065;52.898;6.992;2023-07-13T12:44:31;21.20;99.90
61201;DHT22;47065;52.898;6.992;2023-07-13T12:47:03;21.40;99.90
61201;DHT22;47065;52.898;6.992;2023-07-13T12:49:32;21.60;99.90
61201;DHT22;47065;52.898;6.992;2023-07-13T12:52:03;21.90;99.90
61201;DHT22;47065;52.898;6.992;2023-07-13T12:54:30;22.10;99.90
61201;DHT22;47065;52.898;6.992;2023-07-13T12:56:58;22.20;99.90
61201;DHT22;47065;52.898;6.992;2023-07-13T12:59:28;22.30;99.90
61201;DHT22;47065;52.898;6.992;2023-07-13T13:01:55;22.40;99.90
61201;DHT22;47065;52.898;6.992;2023-07-13T13:04:21;22.40;99.90
61201;DHT22;47065;52.898;6.992;2023-07-13T13:06:48;22.40;99.90
61201;DHT22;47065;52.898;6.992;2023-07-13T13:09:15;22.30;99.90
61201;DHT22;47065;52.898;6.992;2023-07-13T13:11:42;22.40;99.90
61201;DHT22;47065;52.898;6.992;2023-07-13T13:14:08;22.60;99.90
61201;DHT22;47065;52.898;6.992;2023-07-13T13:16:47;22.80;99.90
61201;DHT22;47065;52.898;6.992;2023-07-13T13:19:25;23.00;99.90
61201;DHT22;47065;52.898;6.992;2023-07-13T13:21:52;23.10;99.90
61201;DHT22;47065;52.898;6.992;2023-07-13T13:24:21;23.20;99.90
61201;DHT22;47065;52.898;6.992;2023-07-13T13:26:49;23.20;99.90
61201;DHT22;47065;52.898;6.992;2023-07-13T13:29:23;23.40;99.90
61201;DHT22;47065;52.898;6.992;2023-07-13T13:31:54;23.60;98.30
61201;DHT22;47065;52.898;6.992;2023-07-13T13:34:21;23.90;96.70
61201;DHT22;47065;52.898;6.992;2023-07-13T13:36:49;24.10;94.50
61201;DHT22;47065;52.898;6.992;2023-07-13T13:39:31;24.10;94.80
61201;DHT22;47065;52.898;6.992;2023-07-13T13:41:58;24.00;94.50
61201;DHT22;47065;52.898;6.992;2023-07-13T13:44:23;24.00;94.90
61201;DHT22;47065;52.898;6.992;2023-07-13T13:46:54;24.00;94.90
61201;DHT22;47065;52.898;6.992;2023-07-13T13:49:23;24.00;92.80
61201;DHT22;47065;52.898;6.992;2023-07-13T13:51:49;24.00;93.10
61201;DHT22;47065;52.898;6.992;2023-07-13T13:54:17;23.90;91.80
61201;DHT22;47065;52.898;6.992;2023-07-13T13:56:44;23.60;91.90
61201;DHT22;47065;52.898;6.992;2023-07-13T13:59:11;23.20;92.40
61201;DHT22;47065;52.898;6.992;2023-07-13T14:01:38;22.90;93.30
61201;DHT22;47065;52.898;6.992;2023-07-13T14:04:04;22.80;94.30
61201;DHT22;47065;52.898;6.992;2023-07-13T14:06:31;22.80;94.40
61201;DHT22;47065;52.898;6.992;2023-07-13T14:08:57;22.80;94.90
61201;DHT22;47065;52.898;6.992;2023-07-13T14:11:23;22.90;95.00
61201;DHT22;47065;52.898;6.992;2023-07-13T14:13:55;22.90;93.40
61201;DHT22;47065;52.898;6.992;2023-07-13T14:16:24;22.80;90.20
61201;DHT22;47065;52.898;6.992;2023-07-13T14:18:53;22.70;91.90
61201;DHT22;47065;52.898;6.992;2023-07-13T14:21:21;22.70;92.60
61201;DHT22;47065;52.898;6.992;2023-07-13T14:23:47;22.60;92.80
61201;DHT22;47065;52.898;6.992;2023-07-13T14:26:24;22.50;93.00
61201;DHT22;47065;52.898;6.992;2023-07-13T14:28:53;22.30;93.10
61201;DHT22;47065;52.898;6.992;2023-07-13T14:31:20;22.10;93.40
61201;DHT22;47065;52.898;6.992;2023-07-13T14:33:46;22.10;93.70
61201;DHT22;47065;52.898;6.992;2023-07-13T14:38:58;22.30;91.60
61201;DHT22;47065;52.898;6.992;2023-07-13T14:41:25;22.20;91.90
61201;DHT22;47065;52.898;6.992;2023-07-13T14:43:51;22.10;92.30
61201;DHT22;47065;52.898;6.992;2023-07-13T14:46:36;21.90;93.10
61201;DHT22;47065;52.898;6.992;2023-07-13T14:49:06;22.00;93.20
61201;DHT22;47065;52.898;6.992;2023-07-13T14:51:35;22.00;93.70
61201;DHT22;47065;52.898;6.992;2023-07-13T14:54:04;22.10;93.50
61201;DHT22;47065;52.898;6.992;2023-07-13T14:56:30;22.20;93.70
61201;DHT22;47065;52.898;6.992;2023-07-13T14:58:56;22.20;94.20
61201;DHT22;47065;52.898;6.992;2023-07-13T15:01:22;22.30;94.10
61201;DHT22;47065;52.898;6.992;2023-07-13T15:03:50;22.50;93.10
61201;DHT22;47065;52.898;6.992;2023-07-13T15:06:17;22.50;92.80
61201;DHT22;47065;52.898;6.992;2023-07-13T15:08:45;22.50;93.30
61201;DHT22;47065;52.898;6.992;2023-07-13T15:11:11;22.50;93.70
61201;DHT22;47065;52.898;6.992;2023-07-13T15:13:38;22.50;94.50
61201;DHT22;47065;52.898;6.992;2023-07-13T15:16:08;22.60;94.00
61201;DHT22;47065;52.898;6.992;2023-07-13T15:18:36;22.80;94.00
61201;DHT22;47065;52.898;6.992;2023-07-13T15:21:14;22.90;93.60
61201;DHT22;47065;52.898;6.992;2023-07-13T15:23:41;22.90;93.00
61201;DHT22;47065;52.898;6.992;2023-07-13T15:26:17;23.10;92.50
61201;DHT22;47065;52.898;6.992;2023-07-13T15:28:44;23.20;90.80
61201;DHT22;47065;52.898;6.992;2023-07-13T15:31:25;23.20;91.90
61201;DHT22;47065;52.898;6.992;2023-07-13T15:33:55;23.10;92.50
61201;DHT22;47065;52.898;6.992;2023-07-13T15:36:23;23.00;93.00
61201;DHT22;47065;52.898;6.992;2023-07-13T15:38:53;22.90;93.60
61201;DHT22;47065;52.898;6.992;2023-07-13T15:41:27;22.90;93.70
61201;DHT22;47065;52.898;6.992;2023-07-13T15:43:55;23.00;92.90
61201;DHT22;47065;52.898;6.992;2023-07-13T15:46:25;23.20;93.00
61201;DHT22;47065;52.898;6.992;2023-07-13T15:48:53;23.40;92.10
61201;DHT22;47065;52.898;6.992;2023-07-13T15:53:53;23.30;92.20
61201;DHT22;47065;52.898;6.992;2023-07-13T15:56:26;23.30;92.60
61201;DHT22;47065;52.898;6.992;2023-07-13T15:58:53;23.30;92.70
61201;DHT22;47065;52.898;6.992;2023-07-13T16:01:20;23.30;92.80
61201;DHT22;47065;52.898;6.992;2023-07-13T16:03:46;23.40;91.60
61201;DHT22;47065;52.898;6.992;2023-07-13T16:06:28;23.30;91.60
61201;DHT22;47065;52.898;6.992;2023-07-13T16:08:55;23.50;92.00
61201;DHT22;47065;52.898;6.992;2023-07-13T16:11:24;23.80;91.80
61201;DHT22;47065;52.898;6.992;2023-07-13T16:13:51;23.90;90.80
61201;DHT22;47065;52.898;6.992;2023-07-13T16:16:22;23.90;90.50
61201;DHT22;47065;52.898;6.992;2023-07-13T16:18:55;23.80;90.40